Schillplate — ZDJJ8 — position and weather

sailwx.info

Track history (hours):
 
Tides and Currents Weather Stations Pressure Air Temp Water Temp Dewpoint Dewpoint Depression Visibility Wind Speed Wind Dir Waves Ship Positions

Schillplate

Last reported at 2015-May-21 20:18 UTC. Time now 2015-May-26 09:50 UTC.
Position N 53°42' W 000°40'.

Length 86 m; draft 5 m.

Type: Cargo ship. MMSI: 236111603.

Date/timePositionNaut miles runAvg speedWind from/ knotsBaromVisibWave heightAir tempDewpointWater temp
2015-May-21 20:18N 53°42' W 000°40'6 7.6
2015-May-21 19:33N 53°41' W 000°31'8 7.9
2015-May-21 18:33N 53°44' W 000°18'8 8.2
2015-May-21 17:33N 53°38' W 000°09'10 9.7
2015-May-21 16:33N 53°34' E 000°06'8 8.3
2015-May-21 15:33N 53°33' E 000°20'5 3.9
2015-May-21 14:13N 53°36' E 000°28'0 0.0
2015-May-21 13:07N 53°36' E 000°28'0 0.0
2015-May-21 12:28N 53°36' E 000°28'0 0.0
2015-May-21 11:31N 53°36' E 000°28'0 0.1
2015-May-21 09:16N 53°36' E 000°28'0 0.1
2015-May-21 08:31N 53°36' E 000°28'4 4.4
2015-May-21 07:33N 53°32' E 000°31'36 9.1
2015-May-21 03:33N 53°08' E 001°17'1211.5
2015-May-21 02:34N 52°59' E 001°29'1211.7
2015-May-21 01:33N 52°51' E 001°42'1110.6
2015-May-21 00:33N 52°43' E 001°53'9 8.7
2015-May-20 23:33N 52°34' E 001°55'8 8.3
2015-May-20 22:33N 52°26' E 001°53'8 7.8
2015-May-20 21:33N 52°18' E 001°52'8 8.3
2015-May-20 20:33N 52°10' E 001°51'10 9.6
2015-May-20 19:34N 52°00' E 001°49'1111.3
2015-May-20 18:33N 51°49' E 001°48'1211.8
2015-May-20 17:34N 51°37' E 001°51'1110.6
2015-May-20 16:34N 51°28' E 001°58'1110.6
2015-May-20 15:33N 51°18' E 002°05'1212.0
2015-May-20 14:34N 51°10' E 001°51'1413.8
2015-May-20 13:33N 51°02' E 001°33'  
2015-May-15 13:27N 39°08' W 009°50'16 6.9
2015-May-15 11:07N 38°52' W 009°51'4 7.0
2015-May-15 10:31N 38°48' W 009°51'7 6.7
2015-May-15 09:32N 38°41' W 009°51'6 6.4
2015-May-15 08:33N 38°35' W 009°49'6 6.2
2015-May-15 07:32N 38°29' W 009°47'6 6.1
2015-May-15 06:32N 38°23' W 009°45'6 5.9
2015-May-15 05:32N 38°17' W 009°43'15 6.0
2015-May-15 03:05N 38°03' W 009°39'3 6.2
2015-May-15 02:33N 37°60' W 009°38'6 6.1
2015-May-15 01:32N 37°54' W 009°36'6 6.2
2015-May-15 00:33N 37°48' W 009°35'15 6.2
2015-May-14 22:11N 37°33' W 009°30'4 1.4
2015-May-14 19:33N 37°30' W 009°28'7 6.9
2015-May-14 18:33N 37°23' W 009°27'8 7.5
2015-May-14 17:33N 37°16' W 009°25'8 8.2
2015-May-14 16:33N 37°08' W 009°23'9 8.0
2015-May-14 15:24N 36°59' W 009°20'31 7.9
2015-May-14 11:29N 36°40' W 008°50'9 9.5
2015-May-14 10:30N 36°37' W 008°39'1110.0
2015-May-14 09:22N 36°34' W 008°25'8 9.5
2015-May-14 08:34N 36°32' W 008°16'10 9.8
2015-May-14 07:34N 36°29' W 008°05'1010.1
2015-May-14 06:33N 36°25' W 007°53'1010.3
2015-May-14 05:33N 36°22' W 007°41'1210.7
2015-May-14 04:24N 36°18' W 007°26'9310.5
2015-May-13 19:34N 35°58' W 005°34'1110.8
2015-May-13 18:33N 36°02' W 005°21'12510.4
2015-May-13 06:31N 36°22' W 002°48'1111.1
2015-May-13 05:33N 36°24' W 002°35'1111.0
2015-May-13 04:33N 36°26' W 002°21'1110.6
2015-May-13 03:33N 36°29' W 002°09'1111.1
2015-May-13 02:34N 36°39' W 002°03'1211.3
2015-May-13 01:32N 36°50' W 001°57'  
Track history (hours):
 
Tides and Currents Weather Stations Pressure Air Temp Water Temp Dewpoint Dewpoint Depression Visibility Wind Speed Wind Dir Waves Ship Positions

Schillplate

Last reported at 2015-May-21 20:18 UTC. Time now 2015-May-26 09:50 UTC.
Position N 53°42' W 000°40'.

Length 86 m; draft 5 m.

Type: Cargo ship. MMSI: 236111603.

Date/timePositionNaut miles runAvg speedWind from/ knotsBaromVisibWave heightAir tempDewpointWater temp
2015-May-21 20:18N 53°42' W 000°40'6 7.6
2015-May-21 19:33N 53°41' W 000°31'8 7.9
2015-May-21 18:33N 53°44' W 000°18'8 8.2
2015-May-21 17:33N 53°38' W 000°09'10 9.7
2015-May-21 16:33N 53°34' E 000°06'8 8.3
2015-May-21 15:33N 53°33' E 000°20'5 3.9
2015-May-21 14:13N 53°36' E 000°28'0 0.0
2015-May-21 13:07N 53°36' E 000°28'0 0.0
2015-May-21 12:28N 53°36' E 000°28'0 0.0
2015-May-21 11:31N 53°36' E 000°28'0 0.1
2015-May-21 09:16N 53°36' E 000°28'0 0.1
2015-May-21 08:31N 53°36' E 000°28'4 4.4
2015-May-21 07:33N 53°32' E 000°31'36 9.1
2015-May-21 03:33N 53°08' E 001°17'1211.5
2015-May-21 02:34N 52°59' E 001°29'1211.7
2015-May-21 01:33N 52°51' E 001°42'1110.6
2015-May-21 00:33N 52°43' E 001°53'9 8.7
2015-May-20 23:33N 52°34' E 001°55'8 8.3
2015-May-20 22:33N 52°26' E 001°53'8 7.8
2015-May-20 21:33N 52°18' E 001°52'8 8.3
2015-May-20 20:33N 52°10' E 001°51'10 9.6
2015-May-20 19:34N 52°00' E 001°49'1111.3
2015-May-20 18:33N 51°49' E 001°48'1211.8
2015-May-20 17:34N 51°37' E 001°51'1110.6
2015-May-20 16:34N 51°28' E 001°58'1110.6
2015-May-20 15:33N 51°18' E 002°05'1212.0
2015-May-20 14:34N 51°10' E 001°51'1413.8
2015-May-20 13:33N 51°02' E 001°33'  
2015-May-15 13:27N 39°08' W 009°50'16 6.9
2015-May-15 11:07N 38°52' W 009°51'4 7.0
2015-May-15 10:31N 38°48' W 009°51'7 6.7
2015-May-15 09:32N 38°41' W 009°51'6 6.4
2015-May-15 08:33N 38°35' W 009°49'6 6.2
2015-May-15 07:32N 38°29' W 009°47'6 6.1
2015-May-15 06:32N 38°23' W 009°45'6 5.9
2015-May-15 05:32N 38°17' W 009°43'15 6.0
2015-May-15 03:05N 38°03' W 009°39'3 6.2
2015-May-15 02:33N 37°60' W 009°38'6 6.1
2015-May-15 01:32N 37°54' W 009°36'6 6.2
2015-May-15 00:33N 37°48' W 009°35'15 6.2
2015-May-14 22:11N 37°33' W 009°30'4 1.4
2015-May-14 19:33N 37°30' W 009°28'7 6.9
2015-May-14 18:33N 37°23' W 009°27'8 7.5
2015-May-14 17:33N 37°16' W 009°25'8 8.2
2015-May-14 16:33N 37°08' W 009°23'9 8.0
2015-May-14 15:24N 36°59' W 009°20'31 7.9
2015-May-14 11:29N 36°40' W 008°50'9 9.5
2015-May-14 10:30N 36°37' W 008°39'1110.0
2015-May-14 09:22N 36°34' W 008°25'8 9.5
2015-May-14 08:34N 36°32' W 008°16'10 9.8
2015-May-14 07:34N 36°29' W 008°05'1010.1
2015-May-14 06:33N 36°25' W 007°53'1010.3
2015-May-14 05:33N 36°22' W 007°41'1210.7
2015-May-14 04:24N 36°18' W 007°26'9310.5
2015-May-13 19:34N 35°58' W 005°34'1110.8
2015-May-13 18:33N 36°02' W 005°21'12510.4
2015-May-13 06:31N 36°22' W 002°48'1111.1
2015-May-13 05:33N 36°24' W 002°35'1111.0
2015-May-13 04:33N 36°26' W 002°21'1110.6
2015-May-13 03:33N 36°29' W 002°09'1111.1
2015-May-13 02:34N 36°39' W 002°03'1211.3
2015-May-13 01:32N 36°50' W 001°57'  

Dump ship's entire track history